Time;durP1;ratioP1;P1;durP2;ratioP2;P2;SDS_P1;SDS_P2;PMS_P1;PMS_P2;Temp;Humidity;BMP_temperature;BMP_pressure;BME280_temperature;BME280_humidity;BME280_pressure;Samples;Min_cycle;Max_cycle;Signal;HPM_P1;HPM_P2
2022/02/05 00:01:30;;;;;;;7.40;6.60;;;7.80;99.90;;;;;;5013562;28;20420;-67
2022/02/05 00:04:01;;;;;;;5.90;5.40;;;7.90;99.90;;;;;;5014355;28;20412;-67
2022/02/05 00:06:33;;;;;;;7.00;5.67;;;7.90;99.90;;;;;;5036417;28;20499;-67
2022/02/05 00:15:38;;;;;;;6.40;5.07;;;7.80;99.90;;;;;;5029240;28;20467;-67
2022/02/05 00:41:45;;;;;;;7.40;6.70;;;7.90;99.90;;;;;;5018357;28;20969;-67
2022/02/05 00:44:11;;;;;;;5.70;5.30;;;7.80;99.90;;;;;;5034454;28;20848;-67
2022/02/05 00:46:40;;;;;;;5.63;5.23;;;7.80;99.90;;;;;;5035082;28;20485;-67
2022/02/05 00:49:06;;;;;;;5.43;5.03;;;7.80;99.90;;;;;;5036514;28;20195;-75
2022/02/05 00:51:50;;;;;;;5.63;5.13;;;7.40;99.90;;;;;;5054962;28;20415;-67
2022/02/05 00:54:19;;;;;;;7.40;5.90;;;7.80;99.90;;;;;;5048522;28;20412;-67
2022/02/05 00:59:16;;;;;;;8.10;5.60;;;7.80;99.90;;;;;;5034615;28;20511;-68
2022/02/05 01:01:42;;;;;;;6.63;5.50;;;7.90;99.90;;;;;;5028477;28;20428;-67
2022/02/05 01:04:08;;;;;;;7.07;5.97;;;7.90;99.90;;;;;;5034203;28;20812;-74
2022/02/05 01:06:34;;;;;;;6.63;5.93;;;7.80;99.90;;;;;;5031227;28;20434;-67
2022/02/05 01:09:05;;;;;;;6.97;6.27;;;7.80;99.90;;;;;;5054704;28;20420;-67
2022/02/05 01:11:32;;;;;;;7.43;5.90;;;7.90;99.90;;;;;;5053958;28;20168;-67
2022/02/05 01:14:00;;;;;;;7.23;6.53;;;7.80;99.90;;;;;;5041302;28;20523;-67
2022/02/05 01:16:37;;;;;;;7.00;6.30;;;7.80;99.90;;;;;;5033631;28;20415;-67
2022/02/05 01:19:04;;;;;;;7.20;6.60;;;7.90;99.90;;;;;;5033890;28;20474;-67
2022/02/05 01:21:46;;;;;;;8.23;7.03;;;7.80;99.90;;;;;;5053387;28;20459;-67
2022/02/05 01:24:14;;;;;;;7.27;6.67;;;7.80;99.90;;;;;;5047404;28;20756;-67
2022/02/05 01:26:48;;;;;;;9.40;6.37;;;7.80;99.90;;;;;;5034121;28;20443;-67
2022/02/05 01:32:06;;;;;;;7.80;6.53;;;7.80;99.90;;;;;;5029273;28;20432;-67
2022/02/05 01:34:47;;;;;;;7.93;6.43;;;7.80;99.90;;;;;;5053946;28;20405;-67
2022/02/05 02:12:02;;;;;;;6.37;5.80;;;7.20;99.90;;;;;;5053478;28;20526;-67
2022/02/05 02:22:19;;;;;;;6.60;5.27;;;7.60;99.90;;;;;;5050817;28;20542;-74
2022/02/05 02:25:00;;;;;;;6.10;5.50;;;7.70;99.90;;;;;;5052928;28;20765;-67
2022/02/05 02:27:41;;;;;;;6.27;5.70;;;7.70;99.90;;;;;;5034524;28;20949;-67
2022/02/05 02:30:17;;;;;;;5.90;5.40;;;7.70;99.90;;;;;;5051168;28;20768;-67
2022/02/05 02:32:48;;;;;;;5.73;5.13;;;7.60;99.90;;;;;;5053226;28;20478;-67
2022/02/05 02:35:20;;;;;;;7.30;5.87;;;7.70;99.90;;;;;;5052393;28;20410;-76
2022/02/05 02:38:00;;;;;;;10.60;6.17;;;7.60;99.90;;;;;;5052829;28;20918;-67
2022/02/05 02:43:06;;;;;;;7.50;6.73;;;7.70;99.90;;;;;;5021578;28;20424;-67
2022/02/05 02:45:35;;;;;;;6.20;5.70;;;7.70;99.90;;;;;;5033203;28;20443;-67
2022/02/05 02:48:01;;;;;;;6.67;6.10;;;7.70;99.90;;;;;;5032985;28;20412;-67
2022/02/05 02:56:24;;;;;;;7.67;6.70;;;7.70;99.90;;;;;;5031748;28;20462;-67
2022/02/05 02:58:44;;;;;;;6.47;5.77;;;7.70;99.90;;;;;;5040167;28;20492;-67
2022/02/05 03:01:17;;;;;;;7.37;6.00;;;7.80;99.90;;;;;;5032450;28;20463;-67
2022/02/05 03:03:43;;;;;;;5.53;5.00;;;7.80;99.90;;;;;;5032726;28;20162;-67
2022/02/05 03:06:08;;;;;;;7.60;6.07;;;7.60;99.90;;;;;;5015009;28;20503;-67
2022/02/05 03:08:34;;;;;;;6.37;5.77;;;7.60;99.90;;;;;;5014062;28;20189;-67
2022/02/05 03:11:00;;;;;;;5.70;5.20;;;7.60;99.90;;;;;;5031820;28;20220;-67
2022/02/05 03:13:25;;;;;;;5.97;5.37;;;7.70;99.90;;;;;;5031725;28;20181;-67
2022/02/05 03:15:52;;;;;;;6.00;5.50;;;7.70;99.90;;;;;;5032175;28;20181;-67
2022/02/05 03:21:02;;;;;;;6.97;5.20;;;7.70;99.90;;;;;;5032258;28;20489;-67
2022/02/05 03:23:28;;;;;;;6.70;5.37;;;7.60;99.90;;;;;;5031511;28;20475;-67
2022/02/05 03:25:54;;;;;;;5.43;5.00;;;7.60;99.90;;;;;;5042775;28;20239;-67
2022/02/05 03:28:20;;;;;;;8.10;5.80;;;7.60;99.90;;;;;;5051155;28;20272;-67
2022/02/05 03:30:46;;;;;;;5.10;4.70;;;7.50;99.90;;;;;;5052105;28;20510;-67
2022/02/05 03:33:11;;;;;;;5.83;5.13;;;7.50;99.90;;;;;;5051841;28;20484;-67
2022/02/05 03:35:37;;;;;;;6.27;5.60;;;7.50;99.90;;;;;;5051261;28;20214;-67
2022/02/05 03:38:03;;;;;;;7.30;5.73;;;7.70;99.90;;;;;;5045230;28;20704;-67
2022/02/05 03:40:29;;;;;;;7.53;5.30;;;7.50;99.90;;;;;;5031284;28;20424;-67
2022/02/05 03:42:54;;;;;;;8.17;5.03;;;7.50;99.90;;;;;;5031864;28;20189;-67
2022/02/05 03:45:20;;;;;;;6.60;5.20;;;7.50;99.90;;;;;;5031137;28;20724;-67
2022/02/05 03:47:47;;;;;;;6.43;5.20;;;7.50;99.90;;;;;;5036427;28;20178;-67
2022/02/05 03:50:13;;;;;;;8.30;5.50;;;7.50;99.90;;;;;;5051778;28;20637;-67
2022/02/05 03:52:39;;;;;;;6.33;5.27;;;7.60;99.90;;;;;;5050893;28;20477;-67
2022/02/05 03:55:07;;;;;;;5.70;5.10;;;7.60;99.90;;;;;;5049260;28;20185;-67
2022/02/05 03:57:33;;;;;;;6.30;5.00;;;7.60;99.90;;;;;;5031131;28;20514;-67
2022/02/05 04:00:02;;;;;;;5.70;5.10;;;7.50;99.90;;;;;;5031708;28;20967;-67
2022/02/05 04:02:28;;;;;;;6.23;5.63;;;7.50;99.90;;;;;;5031194;28;20410;-67
2022/02/05 04:04:54;;;;;;;8.27;5.67;;;7.50;99.90;;;;;;5031881;28;20423;-67
2022/02/05 04:07:20;;;;;;;6.97;5.07;;;7.50;99.90;;;;;;5019238;28;20181;-74
2022/02/05 04:09:47;;;;;;;7.00;5.17;;;7.40;99.90;;;;;;5049091;28;20423;-67
2022/02/05 04:17:23;;;;;;;6.77;5.33;;;7.60;99.90;;;;;;5052067;28;20221;-67
2022/02/05 04:19:48;;;;;;;10.20;4.90;;;7.50;99.90;;;;;;5055453;28;20389;-67
2022/02/05 04:22:14;;;;;;;5.63;4.77;;;7.50;99.90;;;;;;5055646;28;20569;-67
2022/02/05 04:24:40;;;;;;;5.83;5.20;;;7.50;99.90;;;;;;5054335;28;20173;-66
2022/02/05 04:27:10;;;;;;;9.40;5.20;;;7.40;99.90;;;;;;5055379;28;20189;-67
2022/02/05 04:29:36;;;;;;;7.50;4.90;;;7.40;99.90;;;;;;5054478;28;20411;-67
2022/02/05 04:32:03;;;;;;;5.77;5.20;;;7.50;99.90;;;;;;5054767;28;20428;-67
2022/02/05 04:34:29;;;;;;;9.07;5.53;;;7.50;99.90;;;;;;5036702;28;20480;-67
2022/02/05 04:36:55;;;;;;;5.67;4.90;;;7.50;99.90;;;;;;5037653;28;20498;-67
2022/02/05 04:39:22;;;;;;;5.00;4.50;;;7.50;99.90;;;;;;5054207;28;20386;-75
2022/02/05 04:57:05;;;;;;;4.90;4.30;;;7.10;99.90;;;;;;5051194;28;20522;-67
2022/02/05 05:20:40;;;;;;;5.73;5.10;;;7.70;99.90;;;;;;5052638;28;20407;-67
2022/02/05 05:23:06;;;;;;;7.27;4.67;;;7.70;99.90;;;;;;5053560;28;20476;-67
2022/02/05 05:25:32;;;;;;;5.67;4.97;;;7.70;99.90;;;;;;5037663;28;20428;-67
2022/02/05 05:27:57;;;;;;;8.67;5.10;;;7.70;99.90;;;;;;5054310;28;20962;-67
2022/02/05 05:30:23;;;;;;;10.60;6.50;;;7.60;99.90;;;;;;5053688;28;20212;-75
2022/02/05 05:32:49;;;;;;;4.70;4.30;;;7.60;99.90;;;;;;5053765;28;20188;-67
2022/02/05 05:35:14;;;;;;;4.97;4.47;;;7.60;99.90;;;;;;5036290;28;20188;-67
2022/02/05 05:37:40;;;;;;;5.37;4.20;;;7.60;99.90;;;;;;5035378;28;20224;-67
2022/02/05 05:40:07;;;;;;;9.17;4.57;;;7.60;99.90;;;;;;5036258;28;20239;-67
2022/02/05 05:42:39;;;;;;;7.57;4.60;;;7.60;99.90;;;;;;5051557;28;20180;-67
2022/02/05 05:47:55;;;;;;;12.07;5.40;;;7.50;99.90;;;;;;5053036;28;20591;-67
2022/02/05 05:51:04;;;;;;;5.83;4.13;;;7.60;99.90;;;;;;5052282;28;20415;-67
2022/02/05 05:53:13;;;;;;;7.97;4.97;;;7.70;99.90;;;;;;5043067;28;20428;-67
2022/02/05 05:55:47;;;;;;;6.37;4.17;;;7.70;99.90;;;;;;5048158;28;20776;-67
2022/02/05 05:58:14;;;;;;;7.40;4.83;;;7.70;99.90;;;;;;5033964;28;20484;-67
2022/02/05 06:00:40;;;;;;;7.73;5.30;;;7.80;99.90;;;;;;5032732;28;20419;-67
2022/02/05 06:03:06;;;;;;;7.33;4.90;;;7.80;99.90;;;;;;5033490;28;20423;-67
2022/02/05 06:05:32;;;;;;;7.90;5.63;;;7.90;99.90;;;;;;5032662;28;20953;-67
2022/02/05 06:07:58;;;;;;;6.30;5.70;;;7.80;99.90;;;;;;5033865;28;20459;-67
2022/02/05 06:10:24;;;;;;;6.60;5.10;;;7.80;99.90;;;;;;5021986;28;20185;-76
2022/02/05 06:12:50;;;;;;;5.67;5.17;;;7.80;99.90;;;;;;5035297;28;20434;-67
2022/02/05 06:15:16;;;;;;;8.40;6.00;;;7.80;99.90;;;;;;5053157;28;20800;-67
2022/02/05 06:17:42;;;;;;;8.50;5.63;;;7.70;99.90;;;;;;5052173;28;20514;-67
2022/02/05 06:20:09;;;;;;;6.07;5.47;;;7.70;99.90;;;;;;5034193;28;20189;-67
2022/02/05 06:22:37;;;;;;;9.70;5.40;;;7.60;99.90;;;;;;5032740;28;20521;-67
2022/02/05 06:25:04;;;;;;;8.90;6.10;;;7.60;99.90;;;;;;5042365;28;20769;-67
2022/02/05 06:27:29;;;;;;;8.67;7.10;;;7.50;99.90;;;;;;5032766;28;20578;-67
2022/02/05 06:29:55;;;;;;;8.70;5.97;;;7.50;99.90;;;;;;5015668;28;20954;-67
2022/02/05 06:32:21;;;;;;;6.73;5.23;;;7.70;99.90;;;;;;5033310;28;20181;-67
2022/02/05 06:34:46;;;;;;;6.83;6.13;;;7.60;99.90;;;;;;5051992;28;20288;-67
2022/02/05 06:37:12;;;;;;;5.63;5.20;;;7.50;99.90;;;;;;5052569;28;20208;-67
2022/02/05 06:39:38;;;;;;;6.83;5.47;;;7.50;99.90;;;;;;5052150;28;20180;-67
2022/02/05 06:42:04;;;;;;;5.83;5.33;;;7.60;99.90;;;;;;5052729;28;20435;-67
2022/02/05 06:44:30;;;;;;;8.33;4.80;;;7.50;99.90;;;;;;5049990;28;20215;-67
2022/02/05 06:46:56;;;;;;;5.80;5.30;;;7.10;99.90;;;;;;5052538;28;20824;-67
2022/02/05 06:49:25;;;;;;;5.53;4.60;;;7.50;99.90;;;;;;5052335;28;20184;-67
2022/02/05 06:51:52;;;;;;;8.03;5.27;;;7.60;99.90;;;;;;5050794;28;20601;-67
2022/02/05 06:54:17;;;;;;;5.83;4.33;;;7.50;99.90;;;;;;5045564;28;20431;-67
2022/02/05 06:56:43;;;;;;;7.20;4.77;;;7.60;99.90;;;;;;5031582;28;20435;-67
2022/02/05 06:59:09;;;;;;;6.00;4.90;;;7.80;99.90;;;;;;5032777;28;20215;-67
2022/02/05 07:01:35;;;;;;;5.73;5.07;;;7.70;99.90;;;;;;5032133;28;20542;-67
2022/02/05 07:04:00;;;;;;;7.13;4.53;;;7.60;99.90;;;;;;5037920;28;20398;-67
2022/02/05 07:06:26;;;;;;;6.40;5.33;;;7.70;99.90;;;;;;5033009;28;20634;-76
2022/02/05 07:08:52;;;;;;;6.17;4.63;;;7.70;99.90;;;;;;5031700;28;20190;-67
2022/02/05 07:11:18;;;;;;;5.70;5.20;;;7.70;99.90;;;;;;5016443;28;20630;-67
2022/02/05 07:13:43;;;;;;;10.53;5.80;;;7.70;99.90;;;;;;5038593;28;20184;-67
2022/02/05 07:16:18;;;;;;;9.00;5.40;;;7.80;99.90;;;;;;5052276;28;20234;-67
2022/02/05 07:21:16;;;;;;;7.07;6.37;;;7.70;99.90;;;;;;5040880;28;20463;-67
2022/02/05 07:29:14;;;;;;;6.57;5.47;;;7.70;99.90;;;;;;5039022;28;20386;-67
2022/02/05 07:31:54;;;;;;;9.30;5.47;;;7.70;99.90;;;;;;5040261;28;20456;-67
2022/02/05 07:34:28;;;;;;;8.20;5.20;;;7.70;99.90;;;;;;5043678;28;20420;-68
2022/02/05 07:36:59;;;;;;;5.97;5.47;;;7.80;99.90;;;;;;5032672;28;20412;-68
2022/02/05 07:39:25;;;;;;;6.30;5.50;;;7.80;99.90;;;;;;5033706;28;20420;-67
2022/02/05 07:41:51;;;;;;;5.87;5.37;;;7.80;99.90;;;;;;5032674;28;21162;-67
2022/02/05 07:44:18;;;;;;;6.40;5.50;;;7.80;99.90;;;;;;5046053;28;20420;-67
2022/02/05 07:46:47;;;;;;;8.37;5.50;;;7.70;99.90;;;;;;5038381;28;20385;-67
2022/02/05 07:49:14;;;;;;;9.37;5.57;;;7.60;99.90;;;;;;5046345;28;20434;-67
2022/02/05 07:51:41;;;;;;;13.20;6.53;;;7.60;99.90;;;;;;5048053;28;20426;-67
2022/02/05 07:54:10;;;;;;;5.67;5.23;;;7.60;99.90;;;;;;5048278;28;20423;-67
2022/02/05 07:56:41;;;;;;;9.90;5.87;;;7.60;99.90;;;;;;5037905;28;20447;-67
2022/02/05 07:59:06;;;;;;;7.07;6.37;;;7.60;99.90;;;;;;5047135;28;20455;-67
2022/02/05 08:01:32;;;;;;;7.27;6.10;;;7.60;99.90;;;;;;5050762;28;20984;-72
2022/02/05 08:04:00;;;;;;;7.67;5.70;;;7.60;99.90;;;;;;5057975;28;20188;-67
2022/02/05 08:06:25;;;;;;;7.80;5.50;;;7.60;99.90;;;;;;5040879;28;20915;-67
2022/02/05 08:08:55;;;;;;;6.87;5.67;;;7.60;99.90;;;;;;5057942;28;20434;-67
2022/02/05 08:11:23;;;;;;;10.77;6.40;;;7.60;99.90;;;;;;5058470;28;20187;-67
2022/02/05 08:13:51;;;;;;;6.40;5.80;;;7.70;99.90;;;;;;5031689;28;20419;-67
2022/02/05 08:16:44;;;;;;;7.67;5.93;;;7.50;99.90;;;;;;5052987;28;20425;-67
2022/02/05 08:19:10;;;;;;;9.30;6.23;;;7.60;99.90;;;;;;5053454;28;20436;-66
2022/02/05 08:21:36;;;;;;;9.63;6.40;;;7.70;99.90;;;;;;5051778;28;20470;-67
2022/02/05 08:24:02;;;;;;;10.00;7.27;;;7.70;99.90;;;;;;5058448;28;20477;-66
2022/02/05 08:26:30;;;;;;;10.10;6.10;;;7.70;99.90;;;;;;5040803;28;20958;-66
2022/02/05 08:28:56;;;;;;;10.47;5.80;;;7.80;99.90;;;;;;5056472;28;20505;-67
2022/02/05 08:31:23;;;;;;;8.00;5.50;;;7.70;99.90;;;;;;5049358;28;20999;-66
2022/02/05 08:33:49;;;;;;;7.67;6.03;;;7.80;99.90;;;;;;5038730;28;20452;-67
2022/02/05 08:36:18;;;;;;;8.63;6.43;;;7.80;99.90;;;;;;5038312;28;20170;-68
2022/02/05 08:38:44;;;;;;;6.53;5.90;;;7.70;99.90;;;;;;5003903;28;20817;-66
2022/02/05 08:41:09;;;;;;;12.33;5.40;;;7.80;99.90;;;;;;5041392;28;20435;-67
2022/02/05 08:43:36;;;;;;;8.63;6.13;;;7.80;99.90;;;;;;5041520;28;20248;-72
2022/02/05 08:46:02;;;;;;;8.13;5.03;;;7.50;99.90;;;;;;5056899;28;20231;-67
2022/02/05 08:48:28;;;;;;;10.40;6.67;;;7.70;99.90;;;;;;5058295;28;20532;-67
2022/02/05 08:50:54;;;;;;;6.30;5.60;;;7.70;99.90;;;;;;5030650;28;20450;-67
2022/02/05 08:53:21;;;;;;;5.73;5.00;;;7.80;99.90;;;;;;5042778;28;20448;-67
2022/02/05 08:55:49;;;;;;;6.13;5.33;;;7.80;99.90;;;;;;5035728;28;20487;-67
2022/02/05 08:58:15;;;;;;;49.47;30.30;;;7.80;99.90;;;;;;5054800;28;20463;-67
2022/02/05 09:00:48;;;;;;;40.97;26.90;;;7.80;99.90;;;;;;5040764;28;20460;-66
2022/02/05 09:03:34;;;;;;;83.60;55.33;;;7.80;99.90;;;;;;5052940;28;20407;-67
2022/02/05 09:06:02;;;;;;;14.93;9.33;;;7.90;99.90;;;;;;5046382;28;20423;-67
2022/02/05 09:08:40;;;;;;;6.17;5.67;;;8.00;99.90;;;;;;5034763;28;20475;-67
2022/02/05 09:11:29;;;;;;;7.00;5.60;;;8.00;99.90;;;;;;5034882;28;20467;-67
2022/02/05 09:14:16;;;;;;;8.27;5.70;;;8.10;99.90;;;;;;5034112;28;20409;-67
2022/02/05 09:16:43;;;;;;;5.67;5.17;;;7.90;99.90;;;;;;5034445;28;20411;-67
2022/02/05 09:19:09;;;;;;;11.10;6.10;;;7.90;99.90;;;;;;5032779;28;20991;-67
2022/02/05 09:21:35;;;;;;;5.83;5.23;;;8.00;99.90;;;;;;5054221;28;20508;-69
2022/02/05 09:24:02;;;;;;;11.40;5.67;;;8.00;99.90;;;;;;5054815;28;20231;-67
2022/02/05 09:26:31;;;;;;;8.03;5.90;;;8.00;99.90;;;;;;5047458;28;20434;-67
2022/02/05 09:29:10;;;;;;;6.07;5.47;;;8.00;99.90;;;;;;5044070;28;20424;-67
2022/02/05 09:31:36;;;;;;;9.87;6.60;;;8.00;99.90;;;;;;5034542;28;20416;-67
2022/02/05 09:34:04;;;;;;;8.73;5.90;;;8.00;99.90;;;;;;5043168;28;20422;-67
2022/02/05 09:36:31;;;;;;;8.53;5.17;;;8.00;99.90;;;;;;5040463;28;20421;-67
2022/02/05 09:38:57;;;;;;;6.63;6.07;;;8.00;99.90;;;;;;5038646;28;20552;-67
2022/02/05 09:41:25;;;;;;;8.17;5.83;;;8.10;99.90;;;;;;5050594;28;20420;-67
2022/02/05 09:43:51;;;;;;;5.90;5.30;;;8.10;99.90;;;;;;5048806;28;20429;-67
2022/02/05 09:46:19;;;;;;;7.77;5.10;;;8.00;99.90;;;;;;5027072;28;20391;-67
2022/02/05 09:48:47;;;;;;;8.80;5.13;;;8.00;99.90;;;;;;5037545;28;20428;-67
2022/02/05 09:51:17;;;;;;;12.40;5.53;;;8.00;99.90;;;;;;5034033;28;20522;-67
2022/02/05 09:53:49;;;;;;;7.30;5.50;;;8.00;99.90;;;;;;5032959;28;20397;-67
2022/02/05 09:56:15;;;;;;;5.60;4.80;;;8.10;99.90;;;;;;5016270;28;20896;-67
2022/02/05 09:58:41;;;;;;;5.60;5.10;;;8.10;99.90;;;;;;5036493;28;20456;-67
2022/02/05 10:01:28;;;;;;;9.07;5.27;;;8.20;99.90;;;;;;5041869;28;20921;-69
2022/02/05 10:03:55;;;;;;;6.40;5.67;;;8.20;99.90;;;;;;5022882;28;20305;-67
2022/02/05 10:06:28;;;;;;;8.40;4.90;;;8.20;99.90;;;;;;5038372;28;20432;-67
2022/02/05 10:09:10;;;;;;;6.13;4.80;;;8.20;99.90;;;;;;5048067;28;20417;-67
2022/02/05 10:11:51;;;;;;;6.57;4.90;;;8.20;99.90;;;;;;5026585;28;20948;-67
2022/02/05 10:14:33;;;;;;;7.93;4.60;;;8.20;99.90;;;;;;5003688;28;20779;-67
2022/02/05 10:17:00;;;;;;;7.20;4.20;;;8.30;99.90;;;;;;5035201;28;20443;-68
2022/02/05 10:19:47;;;;;;;167.00;99.17;;;8.20;99.90;;;;;;5045232;28;20425;-67
2022/02/05 10:22:12;;;;;;;18.93;11.40;;;8.30;99.90;;;;;;5034107;28;20453;-67
2022/02/05 10:25:06;;;;;;;11.47;4.77;;;8.20;99.90;;;;;;5017816;28;20432;-73
2022/02/05 10:27:42;;;;;;;5.67;4.53;;;8.30;99.90;;;;;;5045413;28;20174;-67
2022/02/05 10:30:23;;;;;;;4.67;4.23;;;8.30;99.90;;;;;;5042103;28;20427;-67
2022/02/05 10:33:03;;;;;;;7.17;5.57;;;8.30;99.90;;;;;;5034955;28;20416;-67
2022/02/05 10:35:39;;;;;;;8.40;4.90;;;8.30;99.90;;;;;;5016701;28;20413;-67
2022/02/05 10:43:33;;;;;;;5.10;4.60;;;8.20;99.90;;;;;;5046908;28;20442;-69
2022/02/05 10:46:02;;;;;;;10.80;4.37;;;8.20;99.90;;;;;;5041988;28;20691;-70
2022/02/05 10:48:27;;;;;;;9.57;4.43;;;8.30;99.90;;;;;;5046726;28;20428;-67
2022/02/05 10:50:56;;;;;;;5.27;4.00;;;8.40;99.90;;;;;;5032698;28;20414;-67
2022/02/05 10:53:31;;;;;;;5.73;4.60;;;8.40;99.90;;;;;;5038411;28;20579;-68
2022/02/05 11:07:26;;;;;;;7.83;4.50;;;8.60;99.90;;;;;;5033150;28;20417;-67
2022/02/05 11:09:54;;;;;;;6.07;4.27;;;8.80;99.90;;;;;;5043852;28;20416;-67
2022/02/05 11:20:04;;;;;;;4.50;3.90;;;9.40;98.50;;;;;;5022901;28;20417;-67
2022/02/05 11:22:36;;;;;;;8.37;4.63;;;9.60;98.00;;;;;;5052290;28;20957;-67
2022/02/05 11:25:06;;;;;;;4.00;3.40;;;9.70;97.40;;;;;;5038616;28;20536;-67
2022/02/05 11:27:32;;;;;;;7.77;4.47;;;9.80;96.80;;;;;;5035992;28;20430;-67
2022/02/05 11:30:26;;;;;;;7.20;4.20;;;9.80;96.10;;;;;;5051640;28;20434;-67
2022/02/05 11:32:53;;;;;;;5.90;4.50;;;9.90;95.80;;;;;;5051559;28;20433;-67
2022/02/05 11:35:30;;;;;;;3.97;3.67;;;10.00;95.00;;;;;;5034816;28;20480;-67
2022/02/05 11:38:03;;;;;;;8.30;4.07;;;10.00;95.20;;;;;;5044976;28;20455;-67
2022/02/05 11:40:44;;;;;;;6.77;4.50;;;10.20;95.10;;;;;;5036911;28;20447;-67
2022/02/05 11:43:27;;;;;;;4.70;3.80;;;10.50;95.00;;;;;;5048003;28;20432;-67
2022/02/05 11:46:18;;;;;;;4.13;3.73;;;10.70;94.50;;;;;;5028044;28;20495;-67
2022/02/05 11:48:55;;;;;;;5.50;3.80;;;10.80;93.40;;;;;;5051584;28;20526;-69
2022/02/05 11:51:31;;;;;;;8.60;4.20;;;10.90;92.90;;;;;;5022611;28;20437;-67
2022/02/05 11:54:00;;;;;;;7.17;3.17;;;10.90;92.60;;;;;;5031513;28;20423;-67
2022/02/05 11:59:20;;;;;;;4.40;3.83;;;10.60;91.90;;;;;;5032509;28;20549;-67
2022/02/05 12:01:46;;;;;;;4.20;3.80;;;10.40;91.60;;;;;;5031700;28;20412;-67
2022/02/05 12:04:12;;;;;;;7.10;3.40;;;10.40;92.50;;;;;;5044727;28;20434;-67
2022/02/05 12:06:49;;;;;;;9.63;4.90;;;10.30;92.60;;;;;;5046809;28;20447;-67
2022/02/05 12:09:38;;;;;;;5.23;3.60;;;10.20;93.00;;;;;;5050861;28;20419;-67
2022/02/05 12:12:26;;;;;;;6.37;3.63;;;10.10;92.90;;;;;;5019836;28;20813;-67
2022/02/05 12:15:14;;;;;;;6.87;4.10;;;9.80;93.60;;;;;;5045139;28;20958;-67
2022/02/05 12:18:14;;;;;;;5.67;3.80;;;9.80;94.30;;;;;;5040939;28;20528;-67
2022/02/05 12:21:02;;;;;;;7.57;4.03;;;9.70;94.20;;;;;;5031978;28;20480;-67
2022/02/05 12:26:08;;;;;;;7.40;4.23;;;9.40;94.80;;;;;;5039405;28;20499;-67
2022/02/05 12:28:39;;;;;;;6.23;4.30;;;9.30;95.60;;;;;;5051989;28;20464;-67
2022/02/05 12:31:25;;;;;;;6.37;3.97;;;9.30;95.70;;;;;;5050977;28;20175;-69
2022/02/05 12:34:12;;;;;;;4.30;3.90;;;9.20;95.00;;;;;;5028102;28;20442;-67
2022/02/05 12:36:54;;;;;;;4.03;3.60;;;9.20;94.60;;;;;;5037526;28;20424;-67
2022/02/05 12:39:26;;;;;;;5.60;3.70;;;9.20;94.30;;;;;;5036251;28;20460;-67
2022/02/05 12:42:04;;;;;;;7.60;4.43;;;9.10;94.00;;;;;;5052797;28;20424;-67
2022/02/05 12:44:30;;;;;;;7.30;3.80;;;9.20;93.90;;;;;;5049675;28;20420;-67
2022/02/05 12:47:12;;;;;;;5.73;4.07;;;9.20;94.70;;;;;;5019936;28;20429;-68
2022/02/05 12:49:54;;;;;;;7.20;4.43;;;9.30;94.80;;;;;;5042011;28;20455;-68
2022/02/05 12:52:25;;;;;;;5.60;5.07;;;9.40;95.20;;;;;;5046024;28;20431;-68
2022/02/05 12:54:56;;;;;;;4.20;3.90;;;9.40;95.20;;;;;;5016647;28;20418;-67
2022/02/05 12:57:21;;;;;;;5.07;4.40;;;9.50;94.80;;;;;;5038552;28;21002;-67
2022/02/05 12:59:47;;;;;;;5.70;4.03;;;9.40;93.60;;;;;;5034337;28;20524;-68
2022/02/05 13:02:15;;;;;;;7.70;4.30;;;9.50;94.30;;;;;;5021529;28;20188;-68
2022/02/05 13:04:45;;;;;;;5.23;4.80;;;9.60;94.40;;;;;;5033698;28;20185;-68
2022/02/05 13:07:23;;;;;;;6.40;4.30;;;9.80;93.70;;;;;;5036225;28;20508;-68
2022/02/05 13:10:05;;;;;;;4.60;4.30;;;9.80;93.60;;;;;;5018651;28;20901;-73
2022/02/05 13:12:37;;;;;;;7.07;4.93;;;10.00;93.00;;;;;;5044800;28;20474;-67
2022/02/05 13:15:26;;;;;;;6.83;4.50;;;10.10;92.50;;;;;;5035079;28;20510;-67
2022/02/05 13:34:23;;;;;;;4.77;4.27;;;10.00;92.00;;;;;;5061572;28;20527;-67
2022/02/05 13:39:42;;;;;;;7.40;5.33;;;10.20;91.90;;;;;;5069034;28;20460;-68
2022/02/05 13:42:20;;;;;;;9.60;4.70;;;10.40;92.00;;;;;;5067441;28;20914;-68
2022/02/05 13:47:19;;;;;;;5.47;4.50;;;10.50;90.50;;;;;;5062733;28;20432;-69
2022/02/05 13:50:07;;;;;;;7.33;4.00;;;10.60;89.70;;;;;;5064179;28;20433;-69
2022/02/05 13:52:44;;;;;;;4.13;3.83;;;10.50;88.90;;;;;;5073929;28;20754;-69
2022/02/05 13:55:20;;;;;;;4.33;3.73;;;10.40;87.60;;;;;;5037877;28;20428;-69
2022/02/05 13:58:03;;;;;;;4.00;3.70;;;10.40;87.70;;;;;;5040874;28;20457;-68
2022/02/05 14:00:52;;;;;;;4.47;4.07;;;10.40;87.00;;;;;;5039136;28;20437;-69
2022/02/05 14:03:30;;;;;;;6.33;4.37;;;10.40;87.10;;;;;;5035935;28;20421;-68
2022/02/05 14:06:05;;;;;;;401.63;292.70;;;10.40;87.90;;;;;;5030324;28;20570;-69
2022/02/05 14:08:44;;;;;;;36.10;23.10;;;10.30;88.60;;;;;;5061796;28;20434;-68
2022/02/05 14:11:12;;;;;;;4.80;4.40;;;10.20;87.80;;;;;;5061080;28;20827;-68
2022/02/05 14:13:39;;;;;;;5.13;4.07;;;10.20;88.20;;;;;;5054235;28;20409;-68
2022/02/05 14:16:06;;;;;;;5.00;4.40;;;10.20;87.30;;;;;;5073315;28;20510;-68
2022/02/05 14:18:48;;;;;;;4.67;4.03;;;10.10;87.00;;;;;;5040458;28;20469;-67
2022/02/05 14:21:14;;;;;;;5.97;4.10;;;10.20;87.30;;;;;;5050309;28;20935;-68
2022/02/05 14:24:00;;;;;;;5.67;5.07;;;10.10;89.10;;;;;;5053552;28;20508;-68
2022/02/05 14:26:29;;;;;;;4.30;3.87;;;10.10;88.00;;;;;;5053152;28;20531;-67
2022/02/05 14:28:57;;;;;;;3.90;3.60;;;10.20;88.50;;;;;;5044470;28;20429;-68
2022/02/05 14:42:19;;;;;;;3.37;3.17;;;10.30;89.90;;;;;;5052763;28;20449;-72
2022/02/05 14:44:48;;;;;;;3.33;3.10;;;10.30;87.70;;;;;;5034958;28;20412;-73
2022/02/05 14:47:15;;;;;;;4.10;3.83;;;10.10;86.70;;;;;;5052601;28;20415;-75
2022/02/05 14:49:41;;;;;;;4.20;3.50;;;10.20;87.70;;;;;;5047175;28;20457;-73
2022/02/05 14:52:10;;;;;;;4.60;4.20;;;10.10;86.00;;;;;;5052329;28;20409;-72
2022/02/05 14:54:36;;;;;;;8.53;3.47;;;10.10;86.50;;;;;;5052767;28;20413;-75
2022/02/05 14:57:02;;;;;;;3.63;3.33;;;10.00;86.60;;;;;;5051622;28;20426;-76
2022/02/05 14:59:31;;;;;;;5.20;3.43;;;9.90;88.20;;;;;;5035384;28;20418;-75
2022/02/05 15:01:56;;;;;;;3.90;3.43;;;9.90;88.40;;;;;;5044909;28;20430;-79
2022/02/05 15:04:22;;;;;;;4.13;3.40;;;9.80;88.90;;;;;;5044814;28;20472;-75
2022/02/05 15:06:48;;;;;;;3.73;3.40;;;9.80;89.00;;;;;;5036898;28;20182;-71
2022/02/05 15:09:21;;;;;;;3.37;3.07;;;9.70;89.00;;;;;;5038690;28;20429;-67
2022/02/05 15:11:46;;;;;;;4.33;3.53;;;9.70;90.20;;;;;;5037216;28;20174;-67
2022/02/05 15:14:12;;;;;;;3.77;3.47;;;9.70;90.40;;;;;;5031411;28;20440;-72
2022/02/05 15:16:38;;;;;;;5.03;3.77;;;9.60;91.00;;;;;;5031928;28;20238;-71
2022/02/05 15:19:06;;;;;;;8.20;3.93;;;9.40;90.30;;;;;;5036116;28;20566;-71
2022/02/05 15:21:37;;;;;;;4.70;4.30;;;9.40;90.70;;;;;;5047772;28;20468;-73
2022/02/05 15:24:05;;;;;;;5.10;3.40;;;9.50;91.20;;;;;;5071638;28;20416;-73
2022/02/05 15:26:33;;;;;;;4.90;3.63;;;9.50;90.80;;;;;;5072311;28;20427;-72
2022/02/05 15:29:00;;;;;;;4.97;3.70;;;9.50;90.90;;;;;;5066951;28;20484;-75
2022/02/05 15:31:26;;;;;;;4.47;3.27;;;9.40;90.90;;;;;;5065263;28;20427;-72
2022/02/05 15:33:56;;;;;;;4.87;3.43;;;9.40;90.80;;;;;;5071054;28;20404;-72
2022/02/05 15:36:31;;;;;;;4.50;3.10;;;9.40;90.90;;;;;;5072192;28;20891;-72
2022/02/05 15:44:10;;;;;;;3.70;2.87;;;9.40;90.70;;;;;;5071966;28;20169;-72
2022/02/05 15:46:36;;;;;;;4.23;3.20;;;9.30;90.60;;;;;;5071338;28;20444;-72
2022/02/05 15:49:03;;;;;;;5.40;3.20;;;9.20;90.60;;;;;;5071950;28;20880;-72
2022/02/05 15:51:31;;;;;;;5.53;2.70;;;9.20;90.80;;;;;;5072416;28;20307;-72
2022/02/05 15:54:01;;;;;;;2.90;2.67;;;9.10;90.50;;;;;;5072123;28;20410;-75
2022/02/05 15:59:10;;;;;;;4.13;3.30;;;9.10;91.20;;;;;;5071749;28;20450;-73
2022/02/05 16:01:36;;;;;;;4.40;3.00;;;9.10;90.70;;;;;;5072409;28;20395;-72
2022/02/05 16:04:02;;;;;;;5.37;3.00;;;9.20;90.80;;;;;;5071908;28;20425;-72
2022/02/05 16:06:29;;;;;;;4.87;4.23;;;9.20;90.70;;;;;;5076051;28;20161;-72
2022/02/05 16:08:55;;;;;;;8.03;3.90;;;9.20;90.70;;;;;;5076003;28;20494;-72
2022/02/05 16:11:22;;;;;;;4.13;3.60;;;9.20;90.80;;;;;;5075950;28;20407;-72
2022/02/05 16:13:47;;;;;;;4.50;3.23;;;9.10;90.40;;;;;;5076563;28;20450;-72
2022/02/05 16:16:14;;;;;;;16.57;4.40;;;9.10;90.60;;;;;;5075532;28;20439;-72
2022/02/05 16:18:40;;;;;;;4.30;2.93;;;9.10;90.80;;;;;;5076272;28;20209;-72
2022/02/05 16:21:06;;;;;;;4.40;3.10;;;9.10;90.80;;;;;;5070535;28;20554;-72
2022/02/05 16:23:32;;;;;;;2.73;2.50;;;9.10;90.40;;;;;;5055732;28;20421;-72
2022/02/05 16:25:58;;;;;;;4.50;3.10;;;9.10;90.40;;;;;;5055988;28;20553;-72
2022/02/05 16:28:25;;;;;;;4.30;3.97;;;9.10;90.10;;;;;;5056057;28;20432;-72
2022/02/05 16:30:56;;;;;;;3.90;3.50;;;9.20;90.10;;;;;;5038147;28;20424;-72
2022/02/05 16:33:24;;;;;;;3.17;2.90;;;9.20;90.10;;;;;;5055516;28;20453;-72
2022/02/05 16:35:59;;;;;;;3.93;3.50;;;9.10;90.70;;;;;;5037839;28;20420;-72
2022/02/05 16:38:30;;;;;;;4.33;3.27;;;9.10;90.70;;;;;;5055619;28;20507;-72
2022/02/05 16:40:58;;;;;;;3.53;3.23;;;9.20;90.70;;;;;;5055411;28;20949;-72
2022/02/05 16:43:24;;;;;;;5.00;3.23;;;9.20;90.30;;;;;;5055463;28;20416;-72